Time;durP1;ratioP1;P1;durP2;ratioP2;P2;SDS_P1;SDS_P2;PMS_P1;PMS_P2;Temp;Humidity;BMP_temperature;BMP_pressure;BME280_temperature;BME280_humidity;BME280_pressure;Samples;Min_cycle;Max_cycle;Signal;HPM_P1;HPM_P2
2021/04/13 00:01:15;;;;;;;3.90;1.83;;;2.80;99.90;;;;;;5145252;27;20038;-72
2021/04/13 00:04:12;;;;;;;5.03;2.38;;;2.80;99.90;;;;;;5118204;28;20099;-72
2021/04/13 00:06:48;;;;;;;6.15;2.22;;;2.80;99.90;;;;;;5144642;27;20051;-72
2021/04/13 00:09:21;;;;;;;4.80;2.20;;;2.70;99.90;;;;;;5140564;27;20519;-72
2021/04/13 00:11:52;;;;;;;9.90;2.58;;;2.70;99.90;;;;;;5136607;27;20107;-72
2021/04/13 00:14:24;;;;;;;4.13;1.67;;;2.60;99.90;;;;;;5130739;27;20043;-72
2021/04/13 00:16:53;;;;;;;2.20;1.23;;;2.70;99.90;;;;;;5148641;27;20107;-72
2021/04/13 00:19:26;;;;;;;2.95;1.58;;;2.70;99.90;;;;;;5132761;27;20055;-72
2021/04/13 00:21:53;;;;;;;4.85;2.10;;;2.60;99.90;;;;;;5149472;27;20100;-72
2021/04/13 00:24:23;;;;;;;4.03;2.00;;;2.50;99.90;;;;;;5146741;27;20488;-72
2021/04/13 00:26:53;;;;;;;5.15;2.67;;;2.40;99.90;;;;;;5140955;27;20043;-72
2021/04/13 00:29:25;;;;;;;4.57;2.28;;;2.20;99.90;;;;;;5130933;27;20043;-72
2021/04/13 00:32:00;;;;;;;4.85;2.53;;;2.10;99.90;;;;;;5133928;27;20048;-72
2021/04/13 00:35:18;;;;;;;4.53;2.50;;;2.10;99.90;;;;;;5135984;27;20149;-72
2021/04/13 00:37:43;;;;;;;5.72;3.10;;;2.20;99.90;;;;;;5138749;27;20580;-72
2021/04/13 00:40:28;;;;;;;5.53;3.17;;;2.20;99.90;;;;;;5153249;27;20054;-72
2021/04/13 00:43:01;;;;;;;7.05;3.42;;;2.20;99.90;;;;;;5118884;27;20308;-72
2021/04/13 00:45:32;;;;;;;9.50;4.05;;;2.20;99.90;;;;;;5129526;27;20326;-72
2021/04/13 00:48:01;;;;;;;8.40;4.30;;;2.10;99.90;;;;;;5147383;27;20035;-72
2021/04/13 00:50:43;;;;;;;6.70;4.03;;;2.10;99.90;;;;;;5135430;27;20078;-72
2021/04/13 00:53:16;;;;;;;4.78;3.65;;;2.10;99.90;;;;;;5145666;27;20054;-72
2021/04/13 00:55:47;;;;;;;8.93;4.60;;;2.10;99.90;;;;;;5135130;27;20038;-71
2021/04/13 00:58:39;;;;;;;7.85;4.78;;;2.10;99.90;;;;;;5148786;27;20043;-72
2021/04/13 01:01:12;;;;;;;6.75;4.88;;;2.10;99.90;;;;;;5152197;27;20094;-72
2021/04/13 01:04:14;;;;;;;8.98;4.85;;;2.10;99.90;;;;;;5134330;27;20393;-72
2021/04/13 01:06:40;;;;;;;8.40;5.00;;;2.10;99.90;;;;;;5109654;27;20058;-72
2021/04/13 01:09:22;;;;;;;10.55;4.68;;;2.00;99.90;;;;;;5118293;27;20453;-72
2021/04/13 01:11:55;;;;;;;12.07;5.65;;;2.00;99.90;;;;;;5133963;27;20100;-72
2021/04/13 01:14:24;;;;;;;11.93;6.32;;;2.00;99.90;;;;;;5143481;27;20492;-72
2021/04/13 01:16:56;;;;;;;9.30;6.50;;;1.90;99.90;;;;;;5144656;27;20043;-72
2021/04/13 01:19:47;;;;;;;9.82;6.50;;;1.90;99.90;;;;;;5130070;27;20140;-73
2021/04/13 01:22:50;;;;;;;7.90;4.97;;;1.90;99.90;;;;;;5136191;27;20047;-72
2021/04/13 01:25:16;;;;;;;9.57;6.15;;;1.90;99.90;;;;;;5153552;27;20091;-72
2021/04/13 01:28:11;;;;;;;7.85;5.47;;;1.90;99.90;;;;;;5152239;27;20039;-72
2021/04/13 01:31:02;;;;;;;8.95;6.57;;;1.90;99.90;;;;;;5126910;27;20207;-72
2021/04/13 01:33:44;;;;;;;9.25;6.20;;;1.90;99.90;;;;;;5121514;27;20134;-72
2021/04/13 01:36:33;;;;;;;8.75;6.30;;;1.90;99.90;;;;;;5135286;27;20084;-72
2021/04/13 01:39:08;;;;;;;11.25;7.65;;;1.90;99.90;;;;;;5153024;27;20358;-72
2021/04/13 01:41:47;;;;;;;14.75;8.43;;;1.70;99.90;;;;;;5153302;27;20091;-72
2021/04/13 01:44:17;;;;;;;12.85;7.05;;;1.70;99.90;;;;;;5121272;27;20095;-72
2021/04/13 01:46:44;;;;;;;10.60;6.78;;;1.80;99.90;;;;;;5116849;27;20051;-72
2021/04/13 01:49:11;;;;;;;11.05;7.25;;;1.80;99.90;;;;;;5153652;27;20042;-72
2021/04/13 01:51:37;;;;;;;11.05;7.68;;;1.80;99.90;;;;;;5153160;27;20046;-72
2021/04/13 01:54:11;;;;;;;11.82;8.68;;;1.80;99.90;;;;;;5151091;27;20104;-72
2021/04/13 01:56:55;;;;;;;12.20;8.32;;;1.90;99.90;;;;;;5153661;27;20091;-72
2021/04/13 01:59:45;;;;;;;12.65;7.68;;;2.00;99.90;;;;;;5122683;27;20035;-72
2021/04/13 02:02:18;;;;;;;10.23;7.88;;;2.00;99.90;;;;;;5143546;27;20038;-72
2021/04/13 02:04:52;;;;;;;12.40;8.00;;;2.00;99.90;;;;;;5130181;27;20035;-72
2021/04/13 02:10:28;;;;;;;10.80;6.90;;;2.00;99.90;;;;;;5121015;27;20515;-72
2021/04/13 02:13:26;;;;;;;11.48;7.70;;;2.00;99.90;;;;;;5136527;27;20064;-72
2021/04/13 02:16:20;;;;;;;13.25;7.32;;;2.10;99.90;;;;;;5133324;27;20071;-72
2021/04/13 02:18:49;;;;;;;9.45;6.18;;;2.10;99.90;;;;;;5126648;27;20047;-72
2021/04/13 02:21:22;;;;;;;11.13;6.57;;;2.20;99.90;;;;;;5151427;27;20050;-72
2021/04/13 02:23:52;;;;;;;12.25;6.47;;;2.10;99.90;;;;;;5132554;27;20412;-72
2021/04/13 02:26:19;;;;;;;11.43;6.97;;;2.20;99.90;;;;;;5144981;27;20378;-72
2021/04/13 02:28:49;;;;;;;11.45;6.55;;;2.10;99.90;;;;;;5132310;27;21519;-72
2021/04/13 02:31:37;;;;;;;10.38;6.45;;;2.10;99.90;;;;;;5152347;27;20051;-72
2021/04/13 02:34:39;;;;;;;10.15;6.55;;;2.10;99.90;;;;;;5126132;27;20042;-72
2021/04/13 02:37:32;;;;;;;11.35;6.47;;;2.00;99.90;;;;;;5131880;27;20060;-72
2021/04/13 02:40:07;;;;;;;11.23;7.20;;;1.90;99.90;;;;;;5123424;27;20046;-72
2021/04/13 02:42:50;;;;;;;11.55;7.18;;;1.90;99.90;;;;;;5115643;27;20062;-72
2021/04/13 02:45:40;;;;;;;12.50;7.75;;;1.80;99.90;;;;;;5141245;27;20041;-72
2021/04/13 02:48:14;;;;;;;13.07;7.18;;;1.70;99.90;;;;;;5142688;27;20037;-72
2021/04/13 02:50:46;;;;;;;11.02;7.35;;;1.70;99.90;;;;;;5149259;27;20371;-72
2021/04/13 02:53:15;;;;;;;9.48;6.75;;;1.60;99.90;;;;;;5116648;27;20050;-72
2021/04/13 02:55:50;;;;;;;10.98;6.85;;;1.50;99.90;;;;;;5145754;27;20043;-71
2021/04/13 02:58:20;;;;;;;9.45;6.45;;;1.40;99.90;;;;;;5127488;27;20050;-72
2021/04/13 03:00:51;;;;;;;14.15;9.20;;;1.50;99.90;;;;;;5132882;27;20066;-71
2021/04/13 03:03:26;;;;;;;12.50;9.23;;;1.30;99.90;;;;;;5152128;27;20493;-71
2021/04/13 03:05:56;;;;;;;13.55;8.80;;;1.20;99.90;;;;;;5144589;27;20477;-70
2021/04/13 03:08:41;;;;;;;10.40;7.88;;;1.10;99.90;;;;;;5127743;27;20054;-71
2021/04/13 03:11:24;;;;;;;14.02;8.05;;;1.10;99.90;;;;;;5115764;27;20038;-70
2021/04/13 03:13:53;;;;;;;20.55;10.55;;;1.00;99.90;;;;;;5149137;27;20043;-72
2021/04/13 03:16:32;;;;;;;15.50;10.30;;;0.90;99.90;;;;;;5148999;27;20047;-72
2021/04/13 03:19:21;;;;;;;13.90;9.05;;;0.80;99.90;;;;;;5126568;27;20632;-72
2021/04/13 03:21:54;;;;;;;17.35;9.27;;;0.70;99.90;;;;;;5150065;27;20118;-72
2021/04/13 03:24:26;;;;;;;13.73;9.35;;;0.70;99.90;;;;;;5148262;27;20038;-70
2021/04/13 03:26:58;;;;;;;14.25;9.75;;;0.60;99.90;;;;;;5150688;27;20047;-72
2021/04/13 03:29:45;;;;;;;13.65;9.10;;;0.50;99.90;;;;;;5127857;27;20087;-70
2021/04/13 03:32:14;;;;;;;14.10;9.75;;;0.50;99.90;;;;;;5128687;27;20087;-72
2021/04/13 03:34:42;;;;;;;15.90;9.93;;;0.50;99.90;;;;;;5132201;27;20051;-72
2021/04/13 03:37:11;;;;;;;16.42;10.60;;;0.40;99.90;;;;;;5131016;27;20038;-72
2021/04/13 03:39:41;;;;;;;16.55;9.70;;;0.40;99.90;;;;;;5114718;27;20034;-72
2021/04/13 03:42:14;;;;;;;15.32;8.35;;;0.40;99.90;;;;;;5148469;27;20150;-72
2021/04/13 03:44:42;;;;;;;15.15;9.32;;;0.30;99.90;;;;;;5119187;27;20408;-72
2021/04/13 03:47:11;;;;;;;13.23;7.57;;;0.30;99.90;;;;;;5125916;27;20476;-72
2021/04/13 03:49:40;;;;;;;12.50;8.05;;;0.20;99.90;;;;;;5115649;27;20155;-72
2021/04/13 03:52:11;;;;;;;12.32;7.50;;;0.20;99.90;;;;;;5098591;28;20039;-72
2021/04/13 03:54:40;;;;;;;9.38;6.97;;;0.20;99.90;;;;;;5127333;27;20062;-72
2021/04/13 03:57:07;;;;;;;14.95;9.35;;;0.10;99.90;;;;;;5139412;27;20042;-72
2021/04/13 03:59:39;;;;;;;10.38;7.20;;;0.10;99.90;;;;;;5143636;27;20050;-72
2021/04/13 04:02:07;;;;;;;8.88;6.38;;;0.10;99.90;;;;;;5148293;27;20506;-72
2021/04/13 04:04:37;;;;;;;11.15;7.75;;;0.10;99.90;;;;;;5114507;27;20051;-72
2021/04/13 04:07:33;;;;;;;13.02;8.38;;;0.00;99.90;;;;;;5129471;27;20062;-72
2021/04/13 04:10:00;;;;;;;14.07;8.07;;;-0.10;99.90;;;;;;5149564;27;20457;-72
2021/04/13 04:12:29;;;;;;;12.38;7.85;;;-0.10;99.90;;;;;;5144538;27;20054;-72
2021/04/13 04:15:10;;;;;;;14.40;8.23;;;-0.10;99.90;;;;;;5144478;27;20362;-72
2021/04/13 04:17:48;;;;;;;13.80;7.53;;;-0.10;99.90;;;;;;5132586;27;20054;-72
2021/04/13 04:20:15;;;;;;;14.30;9.43;;;-0.10;99.90;;;;;;5153516;27;20050;-72
2021/04/13 04:22:54;;;;;;;13.77;8.50;;;-0.20;99.90;;;;;;5154995;27;20065;-72
2021/04/13 04:25:41;;;;;;;14.25;8.52;;;-0.30;99.90;;;;;;5141442;27;20087;-72
2021/04/13 04:28:22;;;;;;;13.95;9.00;;;-0.30;99.90;;;;;;5129717;27;20069;-72
2021/04/13 04:31:37;;;;;;;15.40;8.95;;;-0.40;99.90;;;;;;5151254;27;20038;-72
2021/04/13 04:34:14;;;;;;;11.70;7.75;;;-0.40;99.90;;;;;;5131885;27;20117;-73
2021/04/13 04:36:52;;;;;;;14.05;8.27;;;-0.40;99.90;;;;;;5133270;27;20043;-72
2021/04/13 04:39:26;;;;;;;16.67;10.23;;;-0.50;99.90;;;;;;5127868;27;20050;-72
2021/04/13 04:41:55;;;;;;;18.65;11.95;;;-0.50;99.90;;;;;;5153159;27;20444;-72
2021/04/13 04:44:23;;;;;;;16.27;10.90;;;-0.50;99.90;;;;;;5117934;27;20038;-72
2021/04/13 04:46:50;;;;;;;17.23;11.32;;;-0.40;99.90;;;;;;5142609;27;20103;-72
2021/04/13 04:49:19;;;;;;;17.80;10.45;;;-0.40;99.90;;;;;;5152011;27;20046;-72
2021/04/13 04:51:53;;;;;;;16.65;10.75;;;-0.40;99.90;;;;;;5154472;27;20099;-72
2021/04/13 04:54:23;;;;;;;16.50;11.20;;;-0.40;99.90;;;;;;5129576;27;20146;-72
2021/04/13 04:56:50;;;;;;;19.13;10.98;;;-0.40;99.90;;;;;;5153640;27;20080;-71
2021/04/13 04:59:16;;;;;;;17.98;11.32;;;-0.50;99.90;;;;;;5146742;27;20403;-72
2021/04/13 05:01:42;;;;;;;18.23;11.48;;;-0.40;99.90;;;;;;5147596;27;20043;-71
2021/04/13 05:04:09;;;;;;;18.38;12.65;;;-0.40;99.90;;;;;;5132718;27;20035;-71
2021/04/13 05:06:36;;;;;;;17.02;11.38;;;-0.40;99.90;;;;;;5140657;27;20030;-71
2021/04/13 05:09:02;;;;;;;17.77;11.38;;;-0.30;99.90;;;;;;5142217;27;20105;-71
2021/04/13 05:11:29;;;;;;;17.35;12.45;;;-0.30;99.90;;;;;;5134796;27;20051;-71
2021/04/13 05:13:55;;;;;;;16.58;10.80;;;-0.30;99.90;;;;;;5129820;27;20047;-71
2021/04/13 05:16:22;;;;;;;23.33;12.73;;;-0.20;99.90;;;;;;5134490;27;20054;-72
2021/04/13 05:18:49;;;;;;;14.98;10.40;;;-0.20;99.90;;;;;;5134637;27;20047;-74
2021/04/13 05:21:16;;;;;;;19.40;12.93;;;-0.10;99.90;;;;;;5153936;27;20087;-72
2021/04/13 05:23:43;;;;;;;16.65;11.63;;;-0.10;99.90;;;;;;5144698;27;20331;-72
2021/04/13 05:26:10;;;;;;;15.77;9.93;;;0.00;99.90;;;;;;5114229;27;20030;-71
2021/04/13 05:28:36;;;;;;;18.33;11.30;;;0.00;99.90;;;;;;5148604;27;20116;-72
2021/04/13 05:31:04;;;;;;;19.13;10.85;;;0.00;99.90;;;;;;5143813;27;20034;-71
2021/04/13 05:33:31;;;;;;;15.40;10.98;;;0.00;99.90;;;;;;5130498;27;20062;-70
2021/04/13 05:35:59;;;;;;;21.25;12.77;;;0.00;99.90;;;;;;5128145;27;20049;-70
2021/04/13 05:38:33;;;;;;;16.27;10.95;;;0.00;99.90;;;;;;5137104;27;20123;-70
2021/04/13 05:41:00;;;;;;;;;;;0.10;99.90;;;;;;5127325;27;20099;-70
2021/04/13 05:43:27;;;;;;;20.10;12.23;;;0.10;99.90;;;;;;5145446;27;20148;-71
2021/04/13 05:45:58;;;;;;;20.58;12.20;;;0.10;99.90;;;;;;5137353;27;20039;-70
2021/04/13 05:48:25;;;;;;;18.77;12.95;;;0.10;99.90;;;;;;5133787;27;20119;-71
2021/04/13 05:50:53;;;;;;;19.83;13.20;;;0.20;99.90;;;;;;5114598;27;20051;-70
2021/04/13 05:53:19;;;;;;;19.23;12.88;;;0.30;99.90;;;;;;5150386;27;20134;-71
2021/04/13 05:55:46;;;;;;;20.40;13.43;;;0.40;99.90;;;;;;5124584;27;20099;-71
2021/04/13 05:58:26;;;;;;;21.17;12.60;;;0.50;99.90;;;;;;5102300;27;20068;-72
2021/04/13 06:00:56;;;;;;;22.77;13.68;;;0.60;99.90;;;;;;5133384;27;20054;-72
2021/04/13 06:03:25;;;;;;;19.67;13.02;;;0.70;99.90;;;;;;5119509;27;20137;-72
2021/04/13 06:05:55;;;;;;;20.23;12.68;;;0.80;99.90;;;;;;5125642;27;20046;-72
2021/04/13 06:08:35;;;;;;;22.17;13.32;;;1.00;99.90;;;;;;5140321;27;20155;-72
2021/04/13 06:11:02;;;;;;;20.25;12.98;;;1.10;99.90;;;;;;5147162;27;20046;-73
2021/04/13 06:13:29;;;;;;;19.50;12.70;;;1.20;99.90;;;;;;5118820;27;20047;-72
2021/04/13 06:15:56;;;;;;;17.98;11.55;;;1.30;99.90;;;;;;5115625;27;20043;-72
2021/04/13 06:18:23;;;;;;;18.48;12.27;;;1.30;99.90;;;;;;5113260;27;20139;-72
2021/04/13 06:20:51;;;;;;;19.05;12.38;;;1.40;99.90;;;;;;5122949;27;20504;-72
2021/04/13 06:23:18;;;;;;;17.60;11.30;;;1.60;99.90;;;;;;5137035;27;20036;-72
2021/04/13 06:25:44;;;;;;;17.45;11.80;;;1.80;99.90;;;;;;5143621;27;20069;-72
2021/04/13 06:28:11;;;;;;;18.80;12.43;;;1.90;99.90;;;;;;5118392;27;20054;-72
2021/04/13 06:30:41;;;;;;;18.95;12.82;;;2.10;99.90;;;;;;5139199;27;20126;-72
2021/04/13 06:33:07;;;;;;;17.48;11.60;;;2.00;99.90;;;;;;5115534;27;20046;-71
2021/04/13 06:35:34;;;;;;;20.75;12.90;;;2.10;99.90;;;;;;5137953;27;20104;-71
2021/04/13 06:38:05;;;;;;;18.05;12.27;;;2.30;99.90;;;;;;5113667;27;20052;-72
2021/04/13 06:41:06;;;;;;;18.48;13.18;;;2.40;99.90;;;;;;5119714;27;20041;-72
2021/04/13 06:44:12;;;;;;;23.27;13.77;;;2.50;99.90;;;;;;5152025;27;20062;-72
2021/04/13 06:46:44;;;;;;;18.35;12.88;;;2.50;99.90;;;;;;5131457;27;20095;-72
2021/04/13 06:49:31;;;;;;;19.10;13.05;;;2.60;99.90;;;;;;5114547;27;20043;-72
2021/04/13 06:52:21;;;;;;;25.05;14.68;;;2.70;99.90;;;;;;5138332;27;20233;-71
2021/04/13 06:54:53;;;;;;;18.50;13.00;;;2.70;99.90;;;;;;5143593;27;20152;-71
2021/04/13 06:57:49;;;;;;;22.58;14.70;;;2.70;99.90;;;;;;5147629;27;20103;-72
2021/04/13 07:00:27;;;;;;;20.48;13.93;;;2.70;99.90;;;;;;5130273;27;20065;-71
2021/04/13 07:03:04;;;;;;;21.27;13.82;;;2.80;99.90;;;;;;5113773;27;20043;-72
2021/04/13 07:05:58;;;;;;;21.65;14.45;;;2.80;99.90;;;;;;5118169;27;20035;-71
2021/04/13 07:08:49;;;;;;;25.67;14.38;;;3.00;99.90;;;;;;5146922;27;20048;-71
2021/04/13 07:11:31;;;;;;;19.45;13.13;;;3.00;99.90;;;;;;5105648;27;20143;-70
2021/04/13 07:14:19;;;;;;;20.77;13.45;;;3.00;99.90;;;;;;5145207;27;20083;-71
2021/04/13 07:17:18;;;;;;;20.70;12.95;;;3.00;99.90;;;;;;5150017;27;20050;-71
2021/04/13 07:19:51;;;;;;;22.83;13.52;;;3.30;99.90;;;;;;5135256;27;20322;-71
2021/04/13 07:22:25;;;;;;;21.40;13.73;;;3.20;99.90;;;;;;5149705;27;20039;-71
2021/04/13 07:24:51;;;;;;;19.83;14.00;;;3.30;99.90;;;;;;5124904;27;20054;-70
2021/04/13 07:27:41;;;;;;;18.75;13.88;;;3.60;99.90;;;;;;5137368;27;20043;-71
2021/04/13 07:30:18;;;;;;;21.60;14.90;;;3.50;99.90;;;;;;5150216;27;20059;-71
2021/04/13 07:32:45;;;;;;;23.00;15.60;;;3.50;99.90;;;;;;5149918;27;20046;-71
2021/04/13 07:35:17;;;;;;;20.63;15.80;;;3.50;99.90;;;;;;5151417;27;20042;-71
2021/04/13 07:37:46;;;;;;;23.55;15.52;;;3.40;99.90;;;;;;5112924;28;20051;-66
2021/04/13 07:40:38;;;;;;;22.83;14.32;;;3.50;99.90;;;;;;5130595;27;20528;-66
2021/04/13 07:43:30;;;;;;;23.02;14.38;;;3.70;99.90;;;;;;5129080;27;20493;-66
2021/04/13 07:46:01;;;;;;;24.90;15.68;;;3.90;99.90;;;;;;5136236;27;20063;-66
2021/04/13 07:49:09;;;;;;;21.50;14.75;;;4.10;99.90;;;;;;5134821;27;20080;-66
2021/04/13 07:52:00;;;;;;;21.58;14.23;;;4.40;99.90;;;;;;5137860;27;20054;-67
2021/04/13 07:54:26;;;;;;;22.85;15.63;;;4.60;99.90;;;;;;5135284;27;20046;-67
2021/04/13 07:57:00;;;;;;;23.90;15.35;;;4.70;99.90;;;;;;5120676;28;20088;-66
2021/04/13 08:00:01;;;;;;;22.27;15.20;;;4.80;99.90;;;;;;5141918;27;20042;-67
2021/04/13 08:02:28;;;;;;;25.25;16.92;;;4.80;99.90;;;;;;5139937;27;20039;-66
2021/04/13 08:04:58;;;;;;;22.98;15.65;;;4.20;99.90;;;;;;5131795;27;20119;-66
2021/04/13 08:07:32;;;;;;;24.02;16.50;;;4.00;99.90;;;;;;5096061;28;20043;-66
2021/04/13 08:10:12;;;;;;;26.05;17.13;;;4.10;99.90;;;;;;5117198;27;20041;-66
2021/04/13 08:12:59;;;;;;;19.92;15.02;;;4.20;99.90;;;;;;5150357;27;20054;-66
2021/04/13 08:15:41;;;;;;;21.08;14.68;;;4.80;99.90;;;;;;5119121;28;20039;-66
2021/04/13 08:18:10;;;;;;;20.83;15.25;;;5.50;99.90;;;;;;5144650;27;20038;-66
2021/04/13 08:20:43;;;;;;;18.80;14.23;;;5.90;99.90;;;;;;5140171;27;20043;-66
2021/04/13 08:23:26;;;;;;;19.10;13.82;;;6.40;99.90;;;;;;5113838;27;20183;-67
2021/04/13 08:26:11;;;;;;;20.00;14.45;;;6.60;99.90;;;;;;5143929;27;20038;-66
2021/04/13 08:28:37;;;;;;;18.60;13.35;;;7.00;99.90;;;;;;5132387;27;20070;-67
2021/04/13 08:34:25;;;;;;;17.10;13.55;;;7.50;99.90;;;;;;5096396;27;20051;-67
2021/04/13 08:37:28;;;;;;;17.55;13.32;;;6.90;99.90;;;;;;5128954;27;20536;-67
2021/04/13 08:40:23;;;;;;;16.73;12.82;;;6.70;99.90;;;;;;5124425;27;20039;-67
2021/04/13 08:42:59;;;;;;;16.58;12.60;;;7.30;99.90;;;;;;5131529;27;20123;-67
2021/04/13 08:45:32;;;;;;;17.10;12.68;;;7.40;99.90;;;;;;5140698;27;20441;-67
2021/04/13 08:48:13;;;;;;;17.83;13.10;;;7.10;99.90;;;;;;5140260;27;20046;-67
2021/04/13 08:50:43;;;;;;;21.95;14.38;;;7.10;99.90;;;;;;5117715;27;20461;-66
2021/04/13 08:53:24;;;;;;;17.70;14.00;;;6.70;99.90;;;;;;5146824;27;20058;-67
2021/04/13 08:56:22;;;;;;;17.90;13.85;;;6.30;99.90;;;;;;5136055;27;20496;-66
2021/04/13 08:59:05;;;;;;;17.45;13.77;;;6.10;99.90;;;;;;5145148;27;20099;-67
2021/04/13 09:01:39;;;;;;;19.40;13.98;;;5.80;99.90;;;;;;5119758;27;20595;-67
2021/04/13 09:04:31;;;;;;;19.98;13.48;;;5.80;99.90;;;;;;5135700;27;20046;-66
2021/04/13 09:07:28;;;;;;;18.33;13.50;;;5.50;99.90;;;;;;5129998;27;20542;-66
2021/04/13 09:10:16;;;;;;;19.73;13.32;;;5.60;99.90;;;;;;5134117;27;20115;-67
2021/04/13 09:12:52;;;;;;;17.80;12.85;;;6.00;99.90;;;;;;5132217;27;20039;-66
2021/04/13 09:15:26;;;;;;;16.65;12.82;;;6.20;99.90;;;;;;5147581;27;20125;-67
2021/04/13 09:18:15;;;;;;;16.38;11.27;;;6.70;99.90;;;;;;5150809;27;20046;-66
2021/04/13 09:20:47;;;;;;;18.40;13.57;;;6.70;99.90;;;;;;5149765;27;20070;-66
2021/04/13 09:23:28;;;;;;;16.13;11.55;;;6.30;99.90;;;;;;5145718;27;20496;-66
2021/04/13 09:26:29;;;;;;;14.50;10.65;;;6.00;99.90;;;;;;5150180;27;20042;-66
2021/04/13 09:28:59;;;;;;;16.60;12.02;;;6.10;99.90;;;;;;5144606;27;20042;-66
2021/04/13 09:31:42;;;;;;;18.90;12.35;;;5.90;99.90;;;;;;5150054;27;20489;-66
2021/04/13 09:34:57;;;;;;;16.83;12.35;;;5.70;99.90;;;;;;5149242;27;20046;-66
2021/04/13 09:37:48;;;;;;;16.55;11.52;;;5.60;99.90;;;;;;5049581;28;20487;-66
2021/04/13 09:40:33;;;;;;;17.30;11.65;;;5.40;99.90;;;;;;5149236;27;20137;-66
2021/04/13 09:43:33;;;;;;;19.60;11.13;;;6.10;99.90;;;;;;5152876;27;20043;-66
2021/04/13 09:46:14;;;;;;;15.52;10.32;;;6.40;99.90;;;;;;5150318;27;20035;-67
2021/04/13 09:49:32;;;;;;;15.80;11.50;;;5.80;99.90;;;;;;5134319;27;20039;-66
2021/04/13 09:52:37;;;;;;;14.73;10.63;;;5.90;99.90;;;;;;5149136;27;20034;-66
2021/04/13 09:55:33;;;;;;;12.88;9.98;;;7.00;99.90;;;;;;5135957;27;20126;-67
2021/04/13 09:58:07;;;;;;;13.90;7.07;;;7.50;99.90;;;;;;5142484;27;20043;-66
2021/04/13 10:00:53;;;;;;;10.38;6.90;;;6.80;99.10;;;;;;5148372;27;20095;-66
2021/04/13 10:03:41;;;;;;;9.05;6.05;;;6.60;99.10;;;;;;5148469;27;20450;-66
2021/04/13 10:06:37;;;;;;;14.20;7.40;;;6.50;99.90;;;;;;5145828;27;20058;-66
2021/04/13 10:09:25;;;;;;;10.82;7.82;;;6.50;99.90;;;;;;5148132;27;20042;-66
2021/04/13 10:12:21;;;;;;;12.18;7.45;;;6.90;99.90;;;;;;5151594;27;20074;-66
2021/04/13 10:15:09;;;;;;;10.02;7.45;;;7.00;99.90;;;;;;5148150;27;20050;-66
2021/04/13 10:17:43;;;;;;;10.23;6.50;;;8.00;98.30;;;;;;5132034;27;20194;-67
2021/04/13 10:20:48;;;;;;;11.27;7.25;;;9.50;97.20;;;;;;5133837;27;20480;-67
2021/04/13 10:23:47;;;;;;;9.65;6.22;;;10.50;92.50;;;;;;5128206;27;20046;-67
2021/04/13 10:26:32;;;;;;;8.90;6.22;;;10.10;88.30;;;;;;5147988;27;20088;-66
2021/04/13 10:29:20;;;;;;;9.43;6.60;;;9.10;88.40;;;;;;5144671;27;20354;-66
2021/04/13 10:32:07;;;;;;;9.80;6.75;;;9.00;90.60;;;;;;5135147;27;20047;-66
2021/04/13 10:34:46;;;;;;;8.50;5.60;;;9.20;92.70;;;;;;5150805;27;20051;-66
2021/04/13 10:37:51;;;;;;;9.45;6.15;;;9.10;94.00;;;;;;5138478;27;20553;-66
2021/04/13 10:40:52;;;;;;;9.90;6.30;;;8.90;93.10;;;;;;5143646;27;20096;-66
2021/04/13 10:43:57;;;;;;;10.98;5.82;;;8.30;91.30;;;;;;5138937;27;20123;-66
2021/04/13 10:46:49;;;;;;;8.80;5.55;;;7.80;93.80;;;;;;5127963;27;20096;-66
2021/04/13 10:50:07;;;;;;;7.75;4.88;;;7.70;94.70;;;;;;5140083;27;20048;-66
2021/04/13 10:53:04;;;;;;;7.28;4.97;;;7.40;95.10;;;;;;5043493;27;20054;-66
2021/04/13 10:55:56;;;;;;;6.03;4.20;;;7.70;96.50;;;;;;5116577;27;20046;-66
2021/04/13 10:58:48;;;;;;;9.75;4.78;;;8.20;94.80;;;;;;5147779;27;20038;-66
2021/04/13 11:01:42;;;;;;;7.25;4.18;;;7.90;92.70;;;;;;5150091;27;20042;-66
2021/04/13 11:04:33;;;;;;;6.43;3.55;;;7.90;92.50;;;;;;5151040;27;20049;-66
2021/04/13 11:07:28;;;;;;;8.50;3.35;;;8.00;93.60;;;;;;5148796;27;20080;-66
2021/04/13 11:10:18;;;;;;;5.72;3.20;;;9.00;88.50;;;;;;5151583;27;21821;-66
2021/04/13 11:13:12;;;;;;;6.65;3.25;;;10.30;79.00;;;;;;5147194;27;20611;-66
2021/04/13 11:15:59;;;;;;;5.82;3.75;;;11.00;72.90;;;;;;5129749;27;20046;-66
2021/04/13 11:18:50;;;;;;;7.53;3.85;;;9.40;78.60;;;;;;5140875;27;20116;-66
2021/04/13 11:21:59;;;;;;;5.70;3.55;;;9.00;83.70;;;;;;5138300;27;20035;-66
2021/04/13 11:24:57;;;;;;;6.93;3.65;;;9.30;87.20;;;;;;5150534;27;20108;-66
2021/04/13 11:27:55;;;;;;;4.18;2.90;;;9.90;86.20;;;;;;5131952;27;20137;-66
2021/04/13 11:30:56;;;;;;;4.85;2.63;;;10.30;84.80;;;;;;5131010;27;20087;-66
2021/04/13 11:33:43;;;;;;;4.95;2.55;;;9.70;80.40;;;;;;5119712;27;20038;-66
2021/04/13 11:36:44;;;;;;;7.00;2.80;;;8.40;81.80;;;;;;5141390;27;20043;-65
2021/04/13 11:39:38;;;;;;;3.42;1.75;;;8.20;85.90;;;;;;5130776;27;20450;-66
2021/04/13 11:42:30;;;;;;;4.97;2.08;;;8.70;80.20;;;;;;5149181;27;20431;-66
2021/04/13 11:45:11;;;;;;;5.93;2.33;;;8.90;79.20;;;;;;5147388;27;20055;-66
2021/04/13 11:48:02;;;;;;;5.85;2.60;;;9.50;74.80;;;;;;5141854;27;20049;-66
2021/04/13 11:50:53;;;;;;;5.30;2.10;;;8.70;85.90;;;;;;5137894;27;20042;-66
2021/04/13 11:53:38;;;;;;;4.25;1.50;;;8.40;86.80;;;;;;5142035;27;20099;-66
2021/04/13 11:56:28;;;;;;;3.10;1.33;;;8.30;83.40;;;;;;5126943;27;20107;-66
2021/04/13 11:59:16;;;;;;;2.92;1.23;;;8.10;82.00;;;;;;5130923;27;20050;-66
2021/04/13 12:01:49;;;;;;;3.58;1.38;;;8.00;88.40;;;;;;5131123;27;20493;-66
2021/04/13 12:04:22;;;;;;;5.07;1.45;;;8.20;90.70;;;;;;5136291;27;20042;-66
2021/04/13 12:06:57;;;;;;;3.10;1.10;;;8.40;90.90;;;;;;5138667;27;20091;-66
2021/04/13 12:09:48;;;;;;;4.82;1.20;;;9.40;86.00;;;;;;5113300;27;20399;-66
2021/04/13 12:12:29;;;;;;;4.40;1.30;;;10.20;80.30;;;;;;5142868;27;20078;-66
2021/04/13 12:15:07;;;;;;;4.88;1.00;;;10.60;70.20;;;;;;5139636;27;20385;-66
2021/04/13 12:17:49;;;;;;;2.75;0.80;;;10.40;70.70;;;;;;5143253;27;20062;-66
2021/04/13 12:20:28;;;;;;;2.65;0.80;;;9.80;69.30;;;;;;5130248;27;20035;-66
2021/04/13 12:22:57;;;;;;;3.55;1.20;;;9.50;71.80;;;;;;5134202;27;20043;-65
2021/04/13 12:25:43;;;;;;;2.03;0.80;;;8.90;73.40;;;;;;5134692;27;20039;-66
2021/04/13 12:28:33;;;;;;;5.18;1.45;;;8.80;76.50;;;;;;5146603;27;20058;-66
2021/04/13 12:31:05;;;;;;;3.92;1.33;;;9.20;78.00;;;;;;5126819;27;20055;-66
2021/04/13 12:33:31;;;;;;;4.38;1.20;;;8.70;81.80;;;;;;5137797;27;20047;-66
2021/04/13 12:36:09;;;;;;;3.85;1.33;;;8.10;84.10;;;;;;5098422;27;20091;-66
2021/04/13 12:38:42;;;;;;;2.80;1.00;;;8.20;85.00;;;;;;5147956;27;20115;-66
2021/04/13 12:41:40;;;;;;;3.10;1.38;;;8.60;83.20;;;;;;5115617;27;20065;-66
2021/04/13 12:44:10;;;;;;;2.65;1.30;;;8.90;85.50;;;;;;5125406;27;20054;-66
2021/04/13 12:46:36;;;;;;;3.70;1.45;;;9.80;79.60;;;;;;5149380;27;20030;-66
2021/04/13 12:49:23;;;;;;;2.50;1.10;;;10.30;79.60;;;;;;5134814;27;20118;-66
2021/04/13 12:52:18;;;;;;;3.88;0.90;;;10.80;74.40;;;;;;5152991;27;20051;-66
2021/04/13 12:54:45;;;;;;;4.50;1.20;;;11.20;70.10;;;;;;5148760;27;20042;-66
2021/04/13 12:57:18;;;;;;;2.22;0.80;;;10.50;72.30;;;;;;5121850;27;20104;-67
2021/04/13 12:59:44;;;;;;;;;;;10.90;70.30;;;;;;5144157;27;20043;-67
2021/04/13 13:02:50;;;;;;;3.10;0.90;;;10.00;75.50;;;;;;5148300;27;20392;-66
2021/04/13 13:05:33;;;;;;;2.80;0.77;;;10.00;79.10;;;;;;5026677;28;20147;-66
2021/04/13 13:08:15;;;;;;;2.72;0.80;;;9.20;75.30;;;;;;5150124;27;20034;-66
2021/04/13 13:10:45;;;;;;;3.67;0.88;;;9.30;72.40;;;;;;5134671;27;20054;-66
2021/04/13 13:13:28;;;;;;;1.40;0.80;;;9.60;75.90;;;;;;5151104;27;20043;-66
2021/04/13 13:15:56;;;;;;;3.95;1.42;;;10.00;73.00;;;;;;5113932;27;20039;-66
2021/04/13 13:18:30;;;;;;;1.77;1.10;;;10.30;76.90;;;;;;5131923;27;20059;-66
2021/04/13 13:21:06;;;;;;;2.13;1.10;;;12.60;74.30;;;;;;5139977;27;20103;-66
2021/04/13 13:23:37;;;;;;;2.90;0.90;;;14.40;65.50;;;;;;5131364;27;20088;-66
2021/04/13 13:26:32;;;;;;;1.45;0.80;;;14.20;58.30;;;;;;5150740;27;20183;-66
2021/04/13 13:28:58;;;;;;;5.50;1.00;;;10.80;63.30;;;;;;5151532;27;20101;-66
2021/04/13 13:31:45;;;;;;;2.95;0.85;;;10.70;64.30;;;;;;5147161;27;20560;-67
2021/04/13 13:34:21;;;;;;;6.40;1.20;;;10.10;64.50;;;;;;5134896;27;20058;-65
2021/04/13 13:36:49;;;;;;;8.82;1.38;;;11.40;66.40;;;;;;5151267;27;20053;-66
2021/04/13 13:39:29;;;;;;;2.58;1.00;;;12.80;63.60;;;;;;5151364;27;20376;-66
2021/04/13 13:42:00;;;;;;;5.43;1.55;;;13.70;60.60;;;;;;5151426;27;20157;-67
2021/04/13 13:44:38;;;;;;;2.00;0.90;;;15.00;58.40;;;;;;5150200;27;20105;-67
2021/04/13 13:47:07;;;;;;;4.05;1.15;;;17.10;51.50;;;;;;5108189;27;20047;-67
2021/04/13 13:49:46;;;;;;;2.88;0.90;;;18.80;46.00;;;;;;5151591;27;20453;-67
2021/04/13 13:52:38;;;;;;;2.83;0.80;;;19.30;41.80;;;;;;5151620;27;20107;-67
2021/04/13 13:55:27;;;;;;;1.60;0.80;;;14.00;45.10;;;;;;5149203;27;20094;-67